sensor_id;sensor_type;location;lat;lon;timestamp;pressure;altitude;pressure_sealevel;temperature;humidity
61645;BME280;47553;52.428;13.382;2022-11-03T00:01:07;101596.25;;;6.39;100.00
61645;BME280;47553;52.428;13.382;2022-11-03T00:03:09;101584.84;;;6.37;100.00
61645;BME280;47553;52.428;13.382;2022-11-03T00:05:11;101592.66;;;6.43;100.00
61645;BME280;47553;52.428;13.382;2022-11-03T00:07:19;101595.34;;;6.40;100.00
61645;BME280;47553;52.428;13.382;2022-11-03T00:09:22;101595.34;;;6.40;100.00
61645;BME280;47553;52.428;13.382;2022-11-03T00:11:24;101591.78;;;6.41;100.00
61645;BME280;47553;52.428;13.382;2022-11-03T00:13:26;101591.00;;;6.38;100.00
61645;BME280;47553;52.428;13.382;2022-11-03T00:15:29;101595.50;;;6.34;100.00
61645;BME280;47553;52.428;13.382;2022-11-03T00:17:31;101584.84;;;6.37;100.00
61645;BME280;47553;52.428;13.382;2022-11-03T00:19:32;101584.91;;;6.34;100.00
61645;BME280;47553;52.428;13.382;2022-11-03T00:21:34;101593.00;;;6.29;100.00
61645;BME280;47553;52.428;13.382;2022-11-03T00:23:38;101600.13;;;6.27;100.00
61645;BME280;47553;52.428;13.382;2022-11-03T00:25:40;101588.66;;;6.27;100.00
61645;BME280;47553;52.428;13.382;2022-11-03T00:27:42;101589.56;;;6.26;100.00
61645;BME280;47553;52.428;13.382;2022-11-03T00:29:43;101583.44;;;6.24;100.00
61645;BME280;47553;52.428;13.382;2022-11-03T00:31:47;101583.50;;;6.21;100.00
61645;BME280;47553;52.428;13.382;2022-11-03T00:33:49;101587.84;;;6.23;100.00
61645;BME280;47553;52.428;13.382;2022-11-03T00:35:55;101582.56;;;6.23;100.00
61645;BME280;47553;52.428;13.382;2022-11-03T00:37:57;101584.38;;;6.21;100.00
61645;BME280;47553;52.428;13.382;2022-11-03T00:39:58;101581.78;;;6.20;100.00
61645;BME280;47553;52.428;13.382;2022-11-03T00:42:00;101583.75;;;6.12;100.00
61645;BME280;47553;52.428;13.382;2022-11-03T00:44:01;101578.59;;;6.07;100.00
61645;BME280;47553;52.428;13.382;2022-11-03T00:46:05;101566.22;;;6.08;100.00
61645;BME280;47553;52.428;13.382;2022-11-03T00:48:08;101569.84;;;6.04;100.00
61645;BME280;47553;52.428;13.382;2022-11-03T00:50:09;101564.56;;;6.04;100.00
61645;BME280;47553;52.428;13.382;2022-11-03T00:52:11;101558.84;;;6.19;100.00
61645;BME280;47553;52.428;13.382;2022-11-03T00:54:15;101556.06;;;6.23;100.00
61645;BME280;47553;52.428;13.382;2022-11-03T00:56:18;101556.94;;;6.24;100.00
61645;BME280;47553;52.428;13.382;2022-11-03T00:58:20;101550.22;;;6.11;100.00
61645;BME280;47553;52.428;13.382;2022-11-03T01:00:21;101553.22;;;5.98;100.00
61645;BME280;47553;52.428;13.382;2022-11-03T01:02:23;101564.81;;;5.93;100.00
61645;BME280;47553;52.428;13.382;2022-11-03T01:04:26;101561.41;;;5.89;100.00
61645;BME280;47553;52.428;13.382;2022-11-03T01:06:28;101563.38;;;5.81;100.00
61645;BME280;47553;52.428;13.382;2022-11-03T01:08:31;101556.56;;;5.71;100.00
61645;BME280;47553;52.428;13.382;2022-11-03T01:10:35;101545.38;;;5.58;100.00
61645;BME280;47553;52.428;13.382;2022-11-03T01:12:39;101547.22;;;5.55;100.00
61645;BME280;47553;52.428;13.382;2022-11-03T01:14:42;101558.09;;;5.44;100.00
61645;BME280;47553;52.428;13.382;2022-11-03T01:16:45;101558.19;;;5.40;100.00
61645;BME280;47553;52.428;13.382;2022-11-03T01:18:46;101558.88;;;5.48;100.00
61645;BME280;47553;52.428;13.382;2022-11-03T01:20:54;101551.91;;;5.44;100.00
61645;BME280;47553;52.428;13.382;2022-11-03T01:22:56;101552.75;;;5.46;100.00
61645;BME280;47553;52.428;13.382;2022-11-03T01:24:58;101550.03;;;5.49;100.00
61645;BME280;47553;52.428;13.382;2022-11-03T01:26:59;101546.66;;;5.42;100.00
61645;BME280;47553;52.428;13.382;2022-11-03T01:29:01;101549.31;;;5.42;100.00
61645;BME280;47553;52.428;13.382;2022-11-03T01:31:03;101548.59;;;5.35;100.00
61645;BME280;47553;52.428;13.382;2022-11-03T01:33:04;101541.56;;;5.34;100.00
61645;BME280;47553;52.428;13.382;2022-11-03T01:35:07;101550.47;;;5.30;100.00
61645;BME280;47553;52.428;13.382;2022-11-03T01:37:10;101551.13;;;5.40;100.00
61645;BME280;47553;52.428;13.382;2022-11-03T01:39:13;101553.94;;;5.32;100.00
61645;BME280;47553;52.428;13.382;2022-11-03T01:41:17;101551.38;;;5.29;100.00
61645;BME280;47553;52.428;13.382;2022-11-03T01:43:22;101541.69;;;5.28;100.00
61645;BME280;47553;52.428;13.382;2022-11-03T01:45:24;101548.41;;;5.43;100.00
61645;BME280;47553;52.428;13.382;2022-11-03T01:47:27;101529.13;;;5.38;100.00
61645;BME280;47553;52.428;13.382;2022-11-03T01:49:33;101536.41;;;5.28;100.00
61645;BME280;47553;52.428;13.382;2022-11-03T01:51:37;101534.00;;;5.19;100.00
61645;BME280;47553;52.428;13.382;2022-11-03T01:53:42;101546.13;;;5.28;100.00
61645;BME280;47553;52.428;13.382;2022-11-03T01:55:47;101548.72;;;5.29;100.00
61645;BME280;47553;52.428;13.382;2022-11-03T01:57:54;101552.22;;;5.31;100.00
61645;BME280;47553;52.428;13.382;2022-11-03T01:59:58;101559.97;;;5.39;100.00
61645;BME280;47553;52.428;13.382;2022-11-03T02:02:01;101551.19;;;5.37;100.00
61645;BME280;47553;52.428;13.382;2022-11-03T02:04:08;101551.91;;;5.44;100.00
61645;BME280;47553;52.428;13.382;2022-11-03T02:06:11;101553.81;;;5.38;100.00
61645;BME280;47553;52.428;13.382;2022-11-03T02:08:15;101542.56;;;5.29;100.00
61645;BME280;47553;52.428;13.382;2022-11-03T02:10:21;101534.81;;;5.21;100.00
61645;BME280;47553;52.428;13.382;2022-11-03T02:12:23;101537.69;;;5.12;100.00
61645;BME280;47553;52.428;13.382;2022-11-03T02:14:25;101539.13;;;5.25;100.00
61645;BME280;47553;52.428;13.382;2022-11-03T02:16:27;101540.03;;;5.24;100.00
61645;BME280;47553;52.428;13.382;2022-11-03T02:18:32;101530.59;;;5.14;100.00
61645;BME280;47553;52.428;13.382;2022-11-03T02:20:35;101526.88;;;5.21;100.00
61645;BME280;47553;52.428;13.382;2022-11-03T02:22:58;101524.34;;;5.17;100.00
61645;BME280;47553;52.428;13.382;2022-11-03T02:25:10;101518.44;;;5.43;100.00
61645;BME280;47553;52.428;13.382;2022-11-03T02:27:16;101500.97;;;5.35;100.00
61645;BME280;47553;52.428;13.382;2022-11-03T02:29:18;101509.97;;;5.28;100.00
61645;BME280;47553;52.428;13.382;2022-11-03T02:31:27;101504.59;;;5.31;100.00
61645;BME280;47553;52.428;13.382;2022-11-03T02:33:40;101501.13;;;5.29;100.00
61645;BME280;47553;52.428;13.382;2022-11-03T02:35:48;101502.81;;;5.32;100.00
61645;BME280;47553;52.428;13.382;2022-11-03T02:37:54;101504.22;;;5.47;100.00
61645;BME280;47553;52.428;13.382;2022-11-03T02:40:02;101501.75;;;5.39;100.00
61645;BME280;47553;52.428;13.382;2022-11-03T02:42:06;101509.75;;;5.37;100.00
61645;BME280;47553;52.428;13.382;2022-11-03T02:44:14;101512.09;;;5.50;100.00
61645;BME280;47553;52.428;13.382;2022-11-03T02:46:17;101500.75;;;5.45;100.00
61645;BME280;47553;52.428;13.382;2022-11-03T02:48:20;101507.84;;;5.43;100.00
61645;BME280;47553;52.428;13.382;2022-11-03T02:50:26;101500.97;;;5.35;100.00
61645;BME280;47553;52.428;13.382;2022-11-03T02:52:36;101495.59;;;5.38;100.00
61645;BME280;47553;52.428;13.382;2022-11-03T02:54:40;101495.69;;;5.35;100.00
61645;BME280;47553;52.428;13.382;2022-11-03T02:56:48;101501.03;;;5.32;100.00
61645;BME280;47553;52.428;13.382;2022-11-03T02:58:56;101493.19;;;5.29;100.00
61645;BME280;47553;52.428;13.382;2022-11-03T03:01:05;101494.03;;;5.31;100.00
61645;BME280;47553;52.428;13.382;2022-11-03T03:03:11;101490.38;;;5.35;100.00
61645;BME280;47553;52.428;13.382;2022-11-03T03:05:16;101486.91;;;5.33;100.00
61645;BME280;47553;52.428;13.382;2022-11-03T03:07:21;101492.28;;;5.30;100.00
61645;BME280;47553;52.428;13.382;2022-11-03T03:09:27;101479.66;;;5.42;100.00
61645;BME280;47553;52.428;13.382;2022-11-03T03:11:29;101474.44;;;5.38;100.00
61645;BME280;47553;52.428;13.382;2022-11-03T03:13:34;101471.03;;;5.33;100.00
61645;BME280;47553;52.428;13.382;2022-11-03T03:15:38;101468.31;;;5.36;100.00
61645;BME280;47553;52.428;13.382;2022-11-03T03:17:44;101469.38;;;5.29;100.00
61645;BME280;47553;52.428;13.382;2022-11-03T03:19:53;101473.66;;;5.35;100.00
61645;BME280;47553;52.428;13.382;2022-11-03T03:22:00;101465.75;;;5.33;100.00
61645;BME280;47553;52.428;13.382;2022-11-03T03:24:08;101468.47;;;5.30;100.00
61645;BME280;47553;52.428;13.382;2022-11-03T03:26:19;101470.56;;;5.52;100.00
61645;BME280;47553;52.428;13.382;2022-11-03T03:28:24;101469.13;;;5.40;100.00
61645;BME280;47553;52.428;13.382;2022-11-03T03:30:28;101473.19;;;5.53;100.00
61645;BME280;47553;52.428;13.382;2022-11-03T03:32:36;101475.41;;;5.70;100.00
61645;BME280;47553;52.428;13.382;2022-11-03T03:34:42;101473.25;;;5.50;100.00
61645;BME280;47553;52.428;13.382;2022-11-03T03:36:45;101466.16;;;5.52;100.00
61645;BME280;47553;52.428;13.382;2022-11-03T03:38:52;101465.09;;;5.59;100.00
61645;BME280;47553;52.428;13.382;2022-11-03T03:40:58;101456.19;;;5.62;100.00
61645;BME280;47553;52.428;13.382;2022-11-03T03:43:00;101455.25;;;5.64;100.00
61645;BME280;47553;52.428;13.382;2022-11-03T03:45:05;101454.28;;;5.67;100.00
61645;BME280;47553;52.428;13.382;2022-11-03T03:47:11;101450.59;;;5.74;100.00
61645;BME280;47553;52.428;13.382;2022-11-03T03:49:14;101447.91;;;5.76;100.00
61645;BME280;47553;52.428;13.382;2022-11-03T03:51:21;101452.34;;;5.75;100.00
61645;BME280;47553;52.428;13.382;2022-11-03T03:53:26;101454.25;;;5.70;100.00
61645;BME280;47553;52.428;13.382;2022-11-03T03:55:33;101460.41;;;5.71;100.00
61645;BME280;47553;52.428;13.382;2022-11-03T03:57:36;101455.25;;;5.64;100.00
61645;BME280;47553;52.428;13.382;2022-11-03T03:59:38;101452.97;;;5.51;100.00
61645;BME280;47553;52.428;13.382;2022-11-03T04:01:39;101453.63;;;5.59;100.00
61645;BME280;47553;52.428;13.382;2022-11-03T04:03:41;101454.53;;;5.58;100.00
61645;BME280;47553;52.428;13.382;2022-11-03T04:05:42;101456.59;;;5.47;100.00
61645;BME280;47553;52.428;13.382;2022-11-03T04:07:45;101457.38;;;5.50;100.00
61645;BME280;47553;52.428;13.382;2022-11-03T04:09:47;101446.75;;;5.52;100.00
61645;BME280;47553;52.428;13.382;2022-11-03T04:11:48;101454.38;;;5.64;100.00
61645;BME280;47553;52.428;13.382;2022-11-03T04:13:50;101448.03;;;5.71;100.00
61645;BME280;47553;52.428;13.382;2022-11-03T04:15:51;101448.66;;;5.81;100.00
61645;BME280;47553;52.428;13.382;2022-11-03T04:17:53;101452.09;;;5.84;100.00
61645;BME280;47553;52.428;13.382;2022-11-03T04:19:55;101447.75;;;5.82;100.00
61645;BME280;47553;52.428;13.382;2022-11-03T04:21:56;101448.53;;;5.85;100.00
61645;BME280;47553;52.428;13.382;2022-11-03T04:23:59;101444.28;;;5.80;100.00
61645;BME280;47553;52.428;13.382;2022-11-03T04:26:01;101450.53;;;5.77;100.00
61645;BME280;47553;52.428;13.382;2022-11-03T04:28:07;101426.41;;;5.54;100.00
61645;BME280;47553;52.428;13.382;2022-11-03T04:30:14;101442.06;;;5.63;100.00
61645;BME280;47553;52.428;13.382;2022-11-03T04:32:17;101442.00;;;5.64;100.00
61645;BME280;47553;52.428;13.382;2022-11-03T04:34:18;101435.09;;;5.59;100.00
61645;BME280;47553;52.428;13.382;2022-11-03T04:36:20;101427.38;;;5.51;100.00
61645;BME280;47553;52.428;13.382;2022-11-03T04:38:23;101426.41;;;5.54;100.00
61645;BME280;47553;52.428;13.382;2022-11-03T04:40:27;101421.59;;;5.35;100.00
61645;BME280;47553;52.428;13.382;2022-11-03T04:42:30;101417.34;;;5.30;100.00
61645;BME280;47553;52.428;13.382;2022-11-03T04:44:33;101424.41;;;5.29;100.00
61645;BME280;47553;52.428;13.382;2022-11-03T04:46:35;101420.00;;;5.30;100.00
61645;BME280;47553;52.428;13.382;2022-11-03T04:48:36;101416.09;;;5.45;100.00
61645;BME280;47553;52.428;13.382;2022-11-03T04:50:39;101421.28;;;5.48;100.00
61645;BME280;47553;52.428;13.382;2022-11-03T04:52:47;101424.13;;;5.40;100.00
61645;BME280;47553;52.428;13.382;2022-11-03T04:54:51;101412.78;;;5.36;100.00
61645;BME280;47553;52.428;13.382;2022-11-03T04:56:55;101412.53;;;5.46;100.00
61645;BME280;47553;52.428;13.382;2022-11-03T04:58:57;101416.03;;;5.46;100.00
61645;BME280;47553;52.428;13.382;2022-11-03T05:01:00;101413.44;;;5.45;100.00
61645;BME280;47553;52.428;13.382;2022-11-03T05:03:03;101406.59;;;5.36;100.00
61645;BME280;47553;52.428;13.382;2022-11-03T05:05:14;101409.06;;;5.44;100.00
61645;BME280;47553;52.428;13.382;2022-11-03T05:07:24;101397.09;;;5.29;100.00
61645;BME280;47553;52.428;13.382;2022-11-03T05:09:30;101400.75;;;5.23;100.00
61645;BME280;47553;52.428;13.382;2022-11-03T05:11:34;101400.00;;;5.18;100.00
61645;BME280;47553;52.428;13.382;2022-11-03T05:13:38;101402.66;;;5.18;100.00
61645;BME280;47553;52.428;13.382;2022-11-03T05:15:42;101395.56;;;5.20;100.00
61645;BME280;47553;52.428;13.382;2022-11-03T05:17:44;101399.09;;;5.19;100.00
61645;BME280;47553;52.428;13.382;2022-11-03T05:19:46;101391.44;;;5.09;100.00
61645;BME280;47553;52.428;13.382;2022-11-03T05:21:50;101391.50;;;5.07;100.00
61645;BME280;47553;52.428;13.382;2022-11-03T05:23:56;101385.44;;;5.02;100.00
61645;BME280;47553;52.428;13.382;2022-11-03T05:25:58;101376.53;;;5.06;100.00
61645;BME280;47553;52.428;13.382;2022-11-03T05:28:00;101381.25;;;4.92;100.00
61645;BME280;47553;52.428;13.382;2022-11-03T05:30:04;101375.88;;;4.96;100.00
61645;BME280;47553;52.428;13.382;2022-11-03T05:32:10;101375.44;;;4.76;100.00
61645;BME280;47553;52.428;13.382;2022-11-03T05:34:31;101377.00;;;4.85;100.00
61645;BME280;47553;52.428;13.382;2022-11-03T05:36:38;101369.97;;;4.84;100.00
61645;BME280;47553;52.428;13.382;2022-11-03T05:38:42;101367.41;;;4.81;100.00
61645;BME280;47553;52.428;13.382;2022-11-03T05:40:43;101360.00;;;4.98;100.00
61645;BME280;47553;52.428;13.382;2022-11-03T05:42:45;101356.47;;;4.97;100.00
61645;BME280;47553;52.428;13.382;2022-11-03T05:44:50;101358.19;;;5.00;100.00
61645;BME280;47553;52.428;13.382;2022-11-03T05:46:53;101367.09;;;4.96;100.00
61645;BME280;47553;52.428;13.382;2022-11-03T05:48:55;101357.34;;;4.98;100.00
61645;BME280;47553;52.428;13.382;2022-11-03T05:51:11;101355.50;;;5.01;100.00
61645;BME280;47553;52.428;13.382;2022-11-03T05:53:28;101360.03;;;4.96;100.00
61645;BME280;47553;52.428;13.382;2022-11-03T05:55:32;101366.41;;;4.85;100.00
61645;BME280;47553;52.428;13.382;2022-11-03T05:57:34;101356.59;;;4.91;100.00
61645;BME280;47553;52.428;13.382;2022-11-03T05:59:36;101358.31;;;4.94;100.00
61645;BME280;47553;52.428;13.382;2022-11-03T06:01:39;101358.25;;;4.97;100.00
61645;BME280;47553;52.428;13.382;2022-11-03T06:03:43;101361.81;;;4.96;100.00
61645;BME280;47553;52.428;13.382;2022-11-03T06:05:45;101357.28;;;5.01;100.00
61645;BME280;47553;52.428;13.382;2022-11-03T06:07:48;101349.22;;;5.05;100.00
61645;BME280;47553;52.428;13.382;2022-11-03T06:09:53;101351.72;;;5.12;100.00
61645;BME280;47553;52.428;13.382;2022-11-03T06:11:56;101346.63;;;5.04;100.00
61645;BME280;47553;52.428;13.382;2022-11-03T06:13:59;101357.06;;;5.09;100.00
61645;BME280;47553;52.428;13.382;2022-11-03T06:16:03;101360.75;;;5.03;100.00
61645;BME280;47553;52.428;13.382;2022-11-03T06:18:13;101359.00;;;5.02;100.00
61645;BME280;47553;52.428;13.382;2022-11-03T06:20:18;101357.28;;;5.01;100.00
61645;BME280;47553;52.428;13.382;2022-11-03T06:22:23;101361.66;;;5.02;100.00
61645;BME280;47553;52.428;13.382;2022-11-03T06:24:28;101366.28;;;4.92;100.00
61645;BME280;47553;52.428;13.382;2022-11-03T06:26:31;101367.91;;;4.98;100.00
61645;BME280;47553;52.428;13.382;2022-11-03T06:28:33;101371.47;;;4.97;100.00
61645;BME280;47553;52.428;13.382;2022-11-03T06:30:39;101369.75;;;4.96;100.00
61645;BME280;47553;52.428;13.382;2022-11-03T06:32:42;101373.00;;;5.05;100.00
61645;BME280;47553;52.428;13.382;2022-11-03T06:34:44;101368.59;;;5.06;100.00
61645;BME280;47553;52.428;13.382;2022-11-03T06:36:48;101367.84;;;5.01;100.00
61645;BME280;47553;52.428;13.382;2022-11-03T06:38:54;101364.38;;;4.99;100.00
61645;BME280;47553;52.428;13.382;2022-11-03T06:40:57;101358.19;;;5.00;100.00
61645;BME280;47553;52.428;13.382;2022-11-03T06:43:00;101366.16;;;4.98;100.00
61645;BME280;47553;52.428;13.382;2022-11-03T06:45:13;101366.03;;;5.03;100.00
61645;BME280;47553;52.428;13.382;2022-11-03T06:47:22;101362.56;;;5.01;100.00
61645;BME280;47553;52.428;13.382;2022-11-03T06:49:27;101359.75;;;5.07;100.00
61645;BME280;47553;52.428;13.382;2022-11-03T06:51:33;101357.16;;;5.05;100.00
61645;BME280;47553;52.428;13.382;2022-11-03T06:53:37;101351.00;;;5.05;100.00
61645;BME280;47553;52.428;13.382;2022-11-03T06:55:39;101358.03;;;5.06;100.00
61645;BME280;47553;52.428;13.382;2022-11-03T06:57:44;101350.13;;;5.04;100.00
61645;BME280;47553;52.428;13.382;2022-11-03T06:59:46;101350.16;;;5.03;100.00
61645;BME280;47553;52.428;13.382;2022-11-03T07:01:53;101344.72;;;5.09;100.00
61645;BME280;47553;52.428;13.382;2022-11-03T07:03:57;101339.38;;;5.11;100.00
61645;BME280;47553;52.428;13.382;2022-11-03T07:06:02;101337.63;;;5.11;100.00
61645;BME280;47553;52.428;13.382;2022-11-03T07:08:15;101331.41;;;5.12;100.00
61645;BME280;47553;52.428;13.382;2022-11-03T07:10:21;101334.50;;;4.94;100.00
61645;BME280;47553;52.428;13.382;2022-11-03T07:12:24;101334.81;;;5.17;100.00
61645;BME280;47553;52.428;13.382;2022-11-03T07:14:26;101336.53;;;5.18;100.00
61645;BME280;47553;52.428;13.382;2022-11-03T07:16:31;101332.00;;;5.23;100.00
61645;BME280;47553;52.428;13.382;2022-11-03T07:18:38;101339.81;;;5.28;100.00
61645;BME280;47553;52.428;13.382;2022-11-03T07:20:41;101338.66;;;5.38;100.00
61645;BME280;47553;52.428;13.382;2022-11-03T07:22:42;101340.97;;;5.50;100.00
61645;BME280;47553;52.428;13.382;2022-11-03T07:24:46;101346.78;;;5.63;100.00
61645;BME280;47553;52.428;13.382;2022-11-03T07:26:53;101343.13;;;5.67;100.00
61645;BME280;47553;52.428;13.382;2022-11-03T07:28:58;101348.28;;;5.73;100.00
61645;BME280;47553;52.428;13.382;2022-11-03T07:31:11;101340.63;;;5.93;100.00
61645;BME280;47553;52.428;13.382;2022-11-03T07:33:19;101347.25;;;6.08;100.00
61645;BME280;47553;52.428;13.382;2022-11-03T07:35:30;101331.91;;;6.19;100.00
61645;BME280;47553;52.428;13.382;2022-11-03T07:37:52;101337.69;;;6.32;100.00
61645;BME280;47553;52.428;13.382;2022-11-03T07:39:56;101333.94;;;6.39;100.00
61645;BME280;47553;52.428;13.382;2022-11-03T07:42:01;101344.81;;;6.30;100.00
61645;BME280;47553;52.428;13.382;2022-11-03T07:44:07;101340.66;;;6.51;100.00
61645;BME280;47553;52.428;13.382;2022-11-03T07:46:17;101338.97;;;6.48;100.00
61645;BME280;47553;52.428;13.382;2022-11-03T07:48:21;101331.91;;;6.75;100.00
61645;BME280;47553;52.428;13.382;2022-11-03T07:50:23;101330.44;;;6.93;100.00
61645;BME280;47553;52.428;13.382;2022-11-03T07:52:25;101330.47;;;6.91;100.00
61645;BME280;47553;52.428;13.382;2022-11-03T07:54:29;101333.03;;;6.94;100.00
61645;BME280;47553;52.428;13.382;2022-11-03T07:56:37;101319.50;;;7.02;100.00
61645;BME280;47553;52.428;13.382;2022-11-03T07:58:41;101324.09;;;7.23;100.00
61645;BME280;47553;52.428;13.382;2022-11-03T08:00:43;101315.69;;;7.37;100.00
61645;BME280;47553;52.428;13.382;2022-11-03T08:02:47;101309.19;;;7.46;100.00
61645;BME280;47553;52.428;13.382;2022-11-03T08:04:52;101312.84;;;7.67;100.00
61645;BME280;47553;52.428;13.382;2022-11-03T08:06:54;101311.44;;;7.56;100.00
61645;BME280;47553;52.428;13.382;2022-11-03T08:08:55;101310.47;;;7.59;100.00
61645;BME280;47553;52.428;13.382;2022-11-03T08:10:57;101307.53;;;7.67;100.00
61645;BME280;47553;52.428;13.382;2022-11-03T08:12:59;101307.88;;;7.57;100.00
61645;BME280;47553;52.428;13.382;2022-11-03T08:15:02;101316.97;;;7.50;100.00
61645;BME280;47553;52.428;13.382;2022-11-03T08:17:04;101300.19;;;7.50;100.00
61645;BME280;47553;52.428;13.382;2022-11-03T08:19:05;101293.16;;;7.49;100.00
61645;BME280;47553;52.428;13.382;2022-11-03T08:21:07;101291.13;;;7.55;100.00
61645;BME280;47553;52.428;13.382;2022-11-03T08:23:09;101284.97;;;7.55;100.00
61645;BME280;47553;52.428;13.382;2022-11-03T08:25:27;101287.63;;;7.55;100.00
61645;BME280;47553;52.428;13.382;2022-11-03T08:27:29;101278.16;;;7.71;100.00
61645;BME280;47553;52.428;13.382;2022-11-03T08:29:33;101284.09;;;7.78;100.00
61645;BME280;47553;52.428;13.382;2022-11-03T08:31:36;101275.09;;;7.82;100.00
61645;BME280;47553;52.428;13.382;2022-11-03T08:33:37;101278.28;;;7.68;100.00
61645;BME280;47553;52.428;13.382;2022-11-03T08:35:41;101273.66;;;7.97;100.00
61645;BME280;47553;52.428;13.382;2022-11-03T08:37:43;101264.78;;;7.98;100.00
61645;BME280;47553;52.428;13.382;2022-11-03T08:39:47;101264.53;;;8.04;100.00
61645;BME280;47553;52.428;13.382;2022-11-03T08:41:49;101259.28;;;8.24;100.00
61645;BME280;47553;52.428;13.382;2022-11-03T08:43:51;101263.72;;;8.23;98.55
61645;BME280;47553;52.428;13.382;2022-11-03T08:45:53;101251.31;;;8.24;100.00
61645;BME280;47553;52.428;13.382;2022-11-03T08:47:59;101251.63;;;8.38;98.80
61645;BME280;47553;52.428;13.382;2022-11-03T08:50:01;101248.72;;;8.44;99.00
61645;BME280;47553;52.428;13.382;2022-11-03T08:52:03;101246.47;;;8.55;98.64
61645;BME280;47553;52.428;13.382;2022-11-03T08:54:05;101242.63;;;8.63;98.07
61645;BME280;47553;52.428;13.382;2022-11-03T08:56:09;101238.16;;;8.63;98.68
61645;BME280;47553;52.428;13.382;2022-11-03T08:58:15;101228.97;;;8.72;97.38
61645;BME280;47553;52.428;13.382;2022-11-03T09:00:17;101234.81;;;8.80;95.98
61645;BME280;47553;52.428;13.382;2022-11-03T09:02:20;101224.31;;;8.77;97.38
61645;BME280;47553;52.428;13.382;2022-11-03T09:04:23;101220.84;;;8.75;97.66
61645;BME280;47553;52.428;13.382;2022-11-03T09:06:26;101215.53;;;8.95;97.03
61645;BME280;47553;52.428;13.382;2022-11-03T09:08:28;101225.94;;;9.22;95.79
61645;BME280;47553;52.428;13.382;2022-11-03T09:10:49;101219.25;;;9.11;95.04
61645;BME280;47553;52.428;13.382;2022-11-03T09:12:54;101224.38;;;9.16;93.80
61645;BME280;47553;52.428;13.382;2022-11-03T09:14:56;101212.06;;;9.13;93.72
61645;BME280;47553;52.428;13.382;2022-11-03T09:16:58;101215.00;;;9.28;91.87
61645;BME280;47553;52.428;13.382;2022-11-03T09:19:00;101209.41;;;9.34;91.97
61645;BME280;47553;52.428;13.382;2022-11-03T09:21:04;101205.81;;;9.35;92.34
61645;BME280;47553;52.428;13.382;2022-11-03T09:23:05;101203.13;;;9.55;94.67
61645;BME280;47553;52.428;13.382;2022-11-03T09:25:08;101208.44;;;9.55;93.00
61645;BME280;47553;52.428;13.382;2022-11-03T09:27:09;101197.28;;;9.66;91.21
61645;BME280;47553;52.428;13.382;2022-11-03T09:29:11;101187.34;;;9.69;92.22
61645;BME280;47553;52.428;13.382;2022-11-03T09:31:13;101189.88;;;9.72;89.50
61645;BME280;47553;52.428;13.382;2022-11-03T09:33:14;101188.84;;;9.75;91.38
61645;BME280;47553;52.428;13.382;2022-11-03T09:35:16;101182.09;;;9.87;91.78
61645;BME280;47553;52.428;13.382;2022-11-03T09:37:19;101176.44;;;9.93;91.47
61645;BME280;47553;52.428;13.382;2022-11-03T09:39:22;101170.69;;;10.02;90.37
61645;BME280;47553;52.428;13.382;2022-11-03T09:41:25;101165.66;;;9.96;89.90
61645;BME280;47553;52.428;13.382;2022-11-03T09:43:48;101157.44;;;10.00;89.18
61645;BME280;47553;52.428;13.382;2022-11-03T09:45:52;101161.38;;;10.10;87.86
61645;BME280;47553;52.428;13.382;2022-11-03T09:47:54;101159.22;;;10.19;88.19
61645;BME280;47553;52.428;13.382;2022-11-03T09:49:56;101156.94;;;10.28;88.85
61645;BME280;47553;52.428;13.382;2022-11-03T09:51:59;101155.22;;;10.44;88.02
61645;BME280;47553;52.428;13.382;2022-11-03T09:54:04;101150.22;;;10.56;86.70
61645;BME280;47553;52.428;13.382;2022-11-03T09:56:07;101147.84;;;10.67;87.81
61645;BME280;47553;52.428;13.382;2022-11-03T09:58:13;101142.66;;;10.64;87.05
61645;BME280;47553;52.428;13.382;2022-11-03T10:00:18;101139.59;;;10.71;86.58
61645;BME280;47553;52.428;13.382;2022-11-03T10:02:24;101141.97;;;10.77;85.33
61645;BME280;47553;52.428;13.382;2022-11-03T10:04:27;101138.75;;;10.71;85.61
61645;BME280;47553;52.428;13.382;2022-11-03T10:06:29;101129.63;;;10.75;86.91
61645;BME280;47553;52.428;13.382;2022-11-03T10:08:33;101116.47;;;10.72;85.07
61645;BME280;47553;52.428;13.382;2022-11-03T10:10:38;101127.63;;;10.80;86.80
61645;BME280;47553;52.428;13.382;2022-11-03T10:12:41;101124.94;;;10.80;85.21
61645;BME280;47553;52.428;13.382;2022-11-03T10:14:44;101121.50;;;10.95;87.29
61645;BME280;47553;52.428;13.382;2022-11-03T10:16:51;101115.50;;;11.07;86.41
61645;BME280;47553;52.428;13.382;2022-11-03T10:18:54;101102.88;;;11.27;84.18
61645;BME280;47553;52.428;13.382;2022-11-03T10:21:00;101105.28;;;11.47;83.24
61645;BME280;47553;52.428;13.382;2022-11-03T10:23:04;101098.81;;;11.35;81.34
61645;BME280;47553;52.428;13.382;2022-11-03T10:25:34;101104.66;;;11.26;80.91
61645;BME280;47553;52.428;13.382;2022-11-03T10:27:40;101096.75;;;11.25;80.49
61645;BME280;47553;52.428;13.382;2022-11-03T10:29:42;101092.53;;;11.21;80.93
61645;BME280;47553;52.428;13.382;2022-11-03T10:31:55;101095.53;;;11.15;81.01
61645;BME280;47553;52.428;13.382;2022-11-03T10:33:57;101083.31;;;11.26;79.37
61645;BME280;47553;52.428;13.382;2022-11-03T10:36:00;101078.66;;;11.30;79.95
61645;BME280;47553;52.428;13.382;2022-11-03T10:38:20;101078.91;;;11.41;80.80
61645;BME280;47553;52.428;13.382;2022-11-03T10:40:34;101079.34;;;11.49;79.16
61645;BME280;47553;52.428;13.382;2022-11-03T10:42:57;101070.13;;;11.55;79.15